Time;durP1;ratioP1;P1;durP2;ratioP2;P2;SDS_P1;SDS_P2;PMS_P1;PMS_P2;Temp;Humidity;BMP_temperature;BMP_pressure;BME280_temperature;BME280_humidity;BME280_pressure;Samples;Min_cycle;Max_cycle;Signal;HPM_P1;HPM_P2
2023/08/08 00:02:03;;;;;;;6.82;1.55;;;;;;;23.92;58.54;101500.41;5028890;28;20021;-72
2023/08/08 00:04:28;;;;;;;3.65;1.35;;;;;;;22.74;62.64;101497.69;5030116;28;20367;-72
2023/08/08 00:06:54;;;;;;;5.63;0.98;;;;;;;23.48;60.74;101492.09;5032700;28;20028;-72
2023/08/08 00:09:19;;;;;;;5.18;1.40;;;;;;;23.68;60.48;101492.78;5042558;28;20034;-72
2023/08/08 00:11:45;;;;;;;8.63;1.40;;;;;;;24.46;57.09;101497.38;5031830;28;20052;-72
2023/08/08 00:14:10;;;;;;;5.35;1.40;;;;;;;24.19;58.90;101495.31;5026714;28;20022;-72
2023/08/08 00:16:35;;;;;;;3.63;1.40;;;;;;;23.72;60.76;101494.34;5008835;28;20033;-72
2023/08/08 00:19:01;;;;;;;2.10;1.10;;;;;;;24.99;54.92;101484.44;5033109;28;20025;-72
2023/08/08 00:21:26;;;;;;;3.65;1.27;;;;;;;24.45;56.55;101485.81;5030358;28;20489;-72
2023/08/08 00:23:52;;;;;;;5.60;1.10;;;;;;;24.19;57.60;101493.53;5028945;28;20057;-72
2023/08/08 00:26:17;;;;;;;5.80;1.23;;;;;;;24.27;58.84;101494.91;5029063;28;20116;-72
2023/08/08 00:28:42;;;;;;;2.97;1.38;;;;;;;23.99;59.19;101493.81;5028804;28;20030;-71
2023/08/08 00:31:08;;;;;;;12.13;1.70;;;;;;;23.58;62.02;101491.59;5027653;28;20029;-73
2023/08/08 00:33:33;;;;;;;11.93;1.50;;;;;;;23.38;62.03;101485.50;5033223;28;20013;-73
2023/08/08 00:35:58;;;;;;;7.47;1.70;;;;;;;24.65;57.78;101489.19;5033369;28;20565;-72
2023/08/08 00:38:24;;;;;;;12.10;1.73;;;;;;;24.53;56.65;101488.88;5025720;28;20021;-73
2023/08/08 00:40:50;;;;;;;7.30;1.40;;;;;;;23.43;60.83;101488.81;5029671;28;20326;-72
2023/08/08 00:43:15;;;;;;;9.57;1.40;;;;;;;23.40;61.32;101488.97;5032554;28;20090;-73
2023/08/08 00:45:43;;;;;;;2.70;1.40;;;;;;;24.68;56.30;101484.50;5048396;28;20033;-72
2023/08/08 00:48:09;;;;;;;7.28;1.45;;;;;;;24.04;58.45;101487.25;5032267;28;20022;-73
2023/08/08 00:50:44;;;;;;;7.85;1.63;;;;;;;24.48;56.18;101482.97;5032019;28;20026;-72
2023/08/08 00:53:10;;;;;;;8.98;1.55;;;;;;;24.51;55.12;101482.78;5013416;28;20034;-73
2023/08/08 00:55:35;;;;;;;4.60;1.17;;;;;;;24.54;54.05;101479.94;5013513;28;20109;-73
2023/08/08 00:58:01;;;;;;;4.20;1.13;;;;;;;24.35;54.92;101479.28;5032084;28;20096;-72
2023/08/08 01:00:26;;;;;;;1.90;1.30;;;;;;;24.57;54.08;101470.88;5032243;28;20026;-73
2023/08/08 01:02:52;;;;;;;5.30;1.33;;;;;;;24.64;52.68;101471.41;5032463;28;20025;-72
2023/08/08 01:05:17;;;;;;;4.93;1.20;;;;;;;25.04;51.42;101469.00;5032013;28;20060;-72
2023/08/08 01:07:43;;;;;;;8.18;1.52;;;;;;;24.44;52.55;101476.09;5032530;28;20083;-72
2023/08/08 01:10:24;;;;;;;4.80;1.30;;;;;;;24.85;51.57;101475.47;5032026;28;20029;-73
2023/08/08 01:12:55;;;;;;;3.95;1.38;;;;;;;24.87;51.00;101468.22;5027458;28;20033;-72
2023/08/08 01:15:22;;;;;;;4.70;1.52;;;;;;;24.70;51.29;101476.38;5032212;28;20125;-72
2023/08/08 01:17:48;;;;;;;5.68;1.50;;;;;;;25.00;50.13;101473.66;5031583;28;20041;-73
2023/08/08 01:20:16;;;;;;;3.03;1.30;;;;;;;25.01;50.29;101474.53;5030133;28;20040;-72
2023/08/08 01:23:20;;;;;;;3.22;0.90;;;;;;;24.59;51.00;101478.81;5039747;28;20029;-72
2023/08/08 01:25:47;;;;;;;2.40;1.20;;;;;;;24.90;50.21;101478.72;5010965;28;20725;-72
2023/08/08 01:28:13;;;;;;;2.08;1.17;;;;;;;25.27;49.12;101480.09;5027073;28;20043;-73
2023/08/08 01:30:39;;;;;;;1.85;1.08;;;;;;;24.67;48.84;101481.91;5022949;28;20033;-73
2023/08/08 01:33:06;;;;;;;3.65;1.23;;;;;;;24.43;49.18;101473.47;5031737;28;20026;-72
2023/08/08 01:35:41;;;;;;;2.90;1.00;;;;;;;24.88;47.48;101477.97;5030882;28;20382;-72
2023/08/08 01:38:17;;;;;;;8.68;1.10;;;;;;;25.29;46.72;101483.53;5019193;28;20037;-73
2023/08/08 01:40:44;;;;;;;2.05;1.02;;;;;;;24.28;47.76;101491.28;5030990;28;20091;-72
2023/08/08 01:43:10;;;;;;;1.90;0.80;;;;;;;24.62;47.38;101478.66;5032003;28;20026;-72
2023/08/08 01:45:37;;;;;;;3.75;1.52;;;;;;;25.53;45.14;101468.66;5010758;28;20407;-71
2023/08/08 01:48:10;;;;;;;2.13;1.13;;;;;;;25.55;44.45;101466.75;5011501;28;20068;-72
2023/08/08 01:50:38;;;;;;;;;;;;;;;25.15;44.05;101466.50;5027113;28;20022;-72
2023/08/08 01:53:04;;;;;;;2.10;1.00;;;;;;;24.84;45.63;101457.72;5026829;28;20396;-73
2023/08/08 01:55:30;;;;;;;2.55;1.08;;;;;;;24.28;45.72;101464.59;5031265;28;20021;-72
2023/08/08 01:57:56;;;;;;;3.60;1.58;;;;;;;24.56;46.67;101474.50;5036352;28;20028;-73
2023/08/08 02:00:21;;;;;;;1.05;1.00;;;;;;;24.80;45.17;101464.19;5048001;28;20029;-73
2023/08/08 02:02:47;;;;;;;2.65;1.25;;;;;;;24.72;45.36;101463.78;5029910;28;20117;-73
2023/08/08 02:05:12;;;;;;;3.65;1.27;;;;;;;24.61;46.52;101466.22;5032573;28;20068;-74
2023/08/08 02:07:38;;;;;;;2.50;1.02;;;;;;;24.60;45.50;101453.81;5032561;28;20590;-73
2023/08/08 02:10:03;;;;;;;2.47;1.10;;;;;;;24.71;45.84;101456.72;5047594;28;20085;-73
2023/08/08 02:12:30;;;;;;;5.63;1.17;;;;;;;24.32;46.23;101456.28;5031436;28;20117;-72
2023/08/08 02:14:56;;;;;;;1.08;0.90;;;;;;;24.04;47.41;101454.34;5025512;28;20782;-72
2023/08/08 02:17:21;;;;;;;1.55;0.80;;;;;;;24.86;45.61;101445.09;5011199;28;20028;-72
2023/08/08 02:19:47;;;;;;;1.50;0.98;;;;;;;24.85;44.70;101448.75;5035149;28;20037;-73
2023/08/08 02:22:12;;;;;;;2.42;1.35;;;;;;;24.84;44.54;101446.13;5032597;28;20436;-73
2023/08/08 02:24:38;;;;;;;3.63;0.88;;;;;;;24.56;44.88;101454.00;5030017;28;20033;-72
2023/08/08 02:27:04;;;;;;;2.83;1.45;;;;;;;24.19;46.00;101461.50;5032675;28;20029;-72
2023/08/08 02:29:29;;;;;;;4.97;1.55;;;;;;;23.82;46.59;101460.88;5046277;28;20034;-71
2023/08/08 02:31:55;;;;;;;1.85;1.00;;;;;;;24.35;46.01;101456.09;5011519;28;20404;-71
2023/08/08 02:34:20;;;;;;;3.38;1.10;;;;;;;24.10;46.15;101454.00;5027899;28;20041;-71
2023/08/08 02:36:46;;;;;;;2.40;1.13;;;;;;;23.67;46.13;101456.38;5018750;28;20033;-71
2023/08/08 02:39:11;;;;;;;2.28;1.00;;;;;;;24.15;46.06;101448.38;5030859;28;20025;-71
2023/08/08 02:41:37;;;;;;;1.48;0.98;;;;;;;24.22;45.40;101450.63;5022777;28;20036;-71
2023/08/08 02:44:02;;;;;;;1.95;1.00;;;;;;;24.64;44.75;101440.19;5015917;28;20112;-71
2023/08/08 02:46:27;;;;;;;1.67;1.10;;;;;;;23.65;45.96;101443.13;5024443;28;20018;-71
2023/08/08 02:48:53;;;;;;;3.13;1.30;;;;;;;23.80;45.50;101443.22;5011943;28;20032;-71
2023/08/08 02:51:18;;;;;;;2.03;1.13;;;;;;;23.55;45.96;101439.25;5010537;28;20018;-71
2023/08/08 02:53:44;;;;;;;6.25;1.50;;;;;;;23.40;46.07;101437.41;5026989;28;20018;-71
2023/08/08 02:56:09;;;;;;;1.65;1.20;;;;;;;23.38;46.45;101430.38;5030853;28;20053;-71
2023/08/08 02:58:37;;;;;;;3.97;1.02;;;;;;;22.27;47.15;101432.53;5031869;28;20030;-70
2023/08/08 03:01:03;;;;;;;2.55;0.90;;;;;;;22.63;47.47;101434.34;5031897;28;20026;-71
2023/08/08 03:03:28;;;;;;;2.10;0.75;;;;;;;23.17;45.86;101429.72;5030543;28;20457;-71
2023/08/08 03:05:54;;;;;;;5.30;0.70;;;;;;;22.65;46.45;101435.09;5030031;28;20036;-72
2023/08/08 03:08:19;;;;;;;2.33;1.17;;;;;;;23.01;45.62;101428.78;5029465;28;20047;-71
2023/08/08 03:10:44;;;;;;;3.80;0.70;;;;;;;23.01;45.25;101428.78;5030266;28;20025;-71
2023/08/08 03:13:10;;;;;;;5.10;1.13;;;;;;;23.21;44.83;101433.09;5029859;28;20424;-71
2023/08/08 03:15:36;;;;;;;2.63;0.77;;;;;;;23.61;44.83;101432.72;5029874;28;20067;-72
2023/08/08 03:18:02;;;;;;;1.33;0.80;;;;;;;22.97;45.63;101440.53;5031444;28;20481;-71
2023/08/08 03:20:27;;;;;;;0.70;0.70;;;;;;;23.19;45.12;101438.50;5029651;28;20051;-71
2023/08/08 03:22:52;;;;;;;0.90;0.60;;;;;;;23.45;44.56;101433.56;5029757;28;20105;-72
2023/08/08 03:25:18;;;;;;;1.67;0.55;;;;;;;22.81;44.93;101436.03;5022007;28;20033;-71
2023/08/08 03:27:43;;;;;;;0.85;0.70;;;;;;;23.14;44.58;101424.56;5025260;28;20044;-73
2023/08/08 03:30:09;;;;;;;1.45;0.70;;;;;;;23.77;43.72;101425.56;5031270;28;20374;-71
2023/08/08 03:32:37;;;;;;;2.80;0.80;;;;;;;22.83;44.34;101430.63;5031061;28;20052;-72
2023/08/08 03:35:04;;;;;;;3.60;1.27;;;;;;;22.80;45.83;101426.31;5030215;28;20036;-72
2023/08/08 03:37:29;;;;;;;2.20;1.02;;;;;;;21.79;45.93;101425.09;5033568;28;20025;-71
2023/08/08 03:39:55;;;;;;;2.80;0.85;;;;;;;22.44;45.24;101429.94;5018335;28;20064;-71
2023/08/08 03:42:20;;;;;;;1.05;0.70;;;;;;;22.95;44.92;101429.13;5024533;28;20379;-71
2023/08/08 03:44:46;;;;;;;0.95;0.60;;;;;;;23.17;44.19;101416.38;5011027;28;20030;-72
2023/08/08 03:47:11;;;;;;;1.92;0.50;;;;;;;22.14;45.65;101422.50;5026038;28;20409;-71
2023/08/08 03:49:37;;;;;;;3.10;1.00;;;;;;;22.63;45.31;101418.34;5043386;28;20025;-72
2023/08/08 03:52:03;;;;;;;2.20;0.70;;;;;;;22.04;46.11;101421.25;5014818;28;20125;-71
2023/08/08 03:54:28;;;;;;;4.78;1.23;;;;;;;22.54;45.25;101409.00;5010771;28;20029;-72
2023/08/08 03:56:53;;;;;;;3.45;0.73;;;;;;;22.60;45.08;101414.03;5029116;28;20120;-71
2023/08/08 03:59:19;;;;;;;0.73;0.50;;;;;;;21.89;46.06;101414.00;5029951;28;20029;-72
2023/08/08 04:01:44;;;;;;;4.70;1.00;;;;;;;22.72;44.46;101407.19;5028616;28;20083;-71
2023/08/08 04:04:10;;;;;;;1.52;0.52;;;;;;;21.77;45.78;101408.31;5029012;28;20112;-71
2023/08/08 04:06:35;;;;;;;1.25;0.60;;;;;;;21.66;45.96;101400.00;5029561;28;20053;-73
2023/08/08 04:09:01;;;;;;;3.55;0.52;;;;;;;22.18;43.65;101405.44;5033840;28;20078;-72
2023/08/08 04:11:26;;;;;;;1.02;0.50;;;;;;;21.98;43.90;101406.44;5010443;28;20079;-72
2023/08/08 04:13:52;;;;;;;0.30;0.30;;;;;;;22.49;43.79;101401.25;5023051;28;20521;-71
2023/08/08 04:16:17;;;;;;;1.38;0.45;;;;;;;22.70;43.65;101407.28;5028527;28;20021;-72
2023/08/08 04:18:43;;;;;;;3.97;0.60;;;;;;;22.34;43.57;101402.06;5028878;28;20031;-73
2023/08/08 04:21:08;;;;;;;1.55;0.88;;;;;;;22.06;44.85;101403.38;5030179;28;20041;-71
2023/08/08 04:23:37;;;;;;;2.53;0.57;;;;;;;21.97;45.08;101403.84;5028809;28;20060;-71
2023/08/08 04:26:03;;;;;;;3.42;0.68;;;;;;;22.44;44.61;101405.97;5029337;28;20029;-72
2023/08/08 04:28:28;;;;;;;0.75;0.40;;;;;;;22.39;45.08;101410.66;5028859;28;20512;-71
2023/08/08 04:30:54;;;;;;;1.70;0.57;;;;;;;22.24;44.92;101400.75;5028689;28;20476;-72
2023/08/08 04:33:19;;;;;;;1.92;0.68;;;;;;;22.46;44.55;101405.88;5023984;28;20080;-72
2023/08/08 04:35:45;;;;;;;2.58;0.50;;;;;;;22.72;44.38;101407.19;5025451;28;20026;-71
2023/08/08 04:38:10;;;;;;;3.55;0.57;;;;;;;22.65;44.50;101406.66;5011758;28;20029;-71
2023/08/08 04:40:35;;;;;;;1.80;0.65;;;;;;;22.29;44.91;101404.91;5027469;28;20036;-71
2023/08/08 04:43:01;;;;;;;0.43;0.43;;;;;;;21.76;45.99;101416.38;5029072;28;20022;-71
2023/08/08 04:45:27;;;;;;;2.83;0.63;;;;;;;22.00;46.09;101415.19;5029450;28;20025;-71
2023/08/08 04:47:52;;;;;;;3.63;1.02;;;;;;;22.06;46.02;101415.84;5028583;28;20017;-71
2023/08/08 04:50:18;;;;;;;3.50;0.65;;;;;;;22.12;45.39;101413.75;5023814;28;20022;-71
2023/08/08 04:52:43;;;;;;;1.88;0.63;;;;;;;22.12;45.28;101419.06;5009104;28;20156;-71
2023/08/08 04:55:09;;;;;;;1.30;0.77;;;;;;;22.13;45.46;101420.78;5010617;28;20477;-71
2023/08/08 04:57:37;;;;;;;1.65;0.68;;;;;;;21.63;46.50;101413.44;5007984;28;20577;-72
2023/08/08 05:00:05;;;;;;;2.50;0.57;;;;;;;21.70;46.61;101417.53;5016442;28;20440;-70
2023/08/08 05:02:31;;;;;;;4.18;0.50;;;;;;;22.10;45.75;101423.59;5028979;28;20109;-70
2023/08/08 05:04:56;;;;;;;1.52;0.47;;;;;;;21.99;45.85;101412.63;5029062;28;20134;-71
2023/08/08 05:07:22;;;;;;;3.28;0.60;;;;;;;21.33;47.16;101421.88;5018177;28;20474;-71
2023/08/08 05:09:47;;;;;;;1.17;0.50;;;;;;;21.65;46.90;101420.44;5010118;28;20105;-71
2023/08/08 05:12:12;;;;;;;1.92;0.60;;;;;;;22.09;45.91;101419.22;5008576;28;20060;-71
2023/08/08 05:14:38;;;;;;;5.05;0.65;;;;;;;22.28;45.73;101416.47;5008465;28;20022;-71
2023/08/08 05:17:04;;;;;;;1.50;0.50;;;;;;;22.01;45.97;101416.06;5024521;28;20119;-71
2023/08/08 05:19:29;;;;;;;2.80;0.55;;;;;;;21.84;46.88;101415.09;5029714;28;20560;-71
2023/08/08 05:21:54;;;;;;;2.45;0.60;;;;;;;22.07;46.78;101420.22;5032211;28;20029;-71
2023/08/08 05:24:20;;;;;;;4.32;0.80;;;;;;;21.91;46.14;101420.97;5049624;28;20120;-71
2023/08/08 05:26:45;;;;;;;1.42;0.55;;;;;;;21.66;47.43;101421.28;5032670;28;20028;-70
2023/08/08 05:29:11;;;;;;;2.95;0.85;;;;;;;22.71;45.85;101416.16;5032564;28;20034;-71
2023/08/08 05:31:36;;;;;;;1.75;0.95;;;;;;;22.27;45.69;101428.09;5025884;28;20486;-70
2023/08/08 05:34:02;;;;;;;0.63;0.45;;;;;;;22.58;46.29;101431.03;5028287;28;20033;-71
2023/08/08 05:36:27;;;;;;;0.47;0.40;;;;;;;22.09;47.58;101416.56;5031276;28;20025;-71
2023/08/08 05:38:52;;;;;;;0.95;0.60;;;;;;;22.40;46.63;101423.03;5032150;28;20033;-71
2023/08/08 05:41:18;;;;;;;3.00;0.50;;;;;;;22.19;46.61;101415.16;5032097;28;20037;-71
2023/08/08 05:43:43;;;;;;;0.43;0.40;;;;;;;21.97;47.73;101425.16;5031750;28;20084;-71
2023/08/08 05:46:09;;;;;;;5.00;0.55;;;;;;;22.16;47.33;101417.97;5021803;28;20044;-71
2023/08/08 05:48:37;;;;;;;2.80;0.70;;;;;;;22.00;47.63;101425.00;5027999;28;20137;-69
2023/08/08 05:51:04;;;;;;;4.70;0.95;;;;;;;22.25;46.98;101426.44;5015537;28;20029;-71
2023/08/08 05:53:31;;;;;;;1.65;0.65;;;;;;;22.32;46.40;101441.16;5033192;28;20013;-71
2023/08/08 05:55:56;;;;;;;2.63;0.68;;;;;;;22.61;45.41;101436.19;5031153;28;20041;-71
2023/08/08 05:58:22;;;;;;;7.82;0.50;;;;;;;22.65;45.71;101432.44;5031915;28;20091;-71
2023/08/08 06:00:47;;;;;;;1.25;0.40;;;;;;;22.90;43.96;101431.16;5031037;28;20033;-71
2023/08/08 06:03:13;;;;;;;0.20;0.20;;;;;;;22.21;45.92;101439.03;5030333;28;20120;-71
2023/08/08 06:05:38;;;;;;;0.70;0.40;;;;;;;22.43;45.10;101428.19;5011126;28;20448;-72
2023/08/08 06:08:06;;;;;;;1.30;0.47;;;;;;;20.98;46.54;101445.63;5012320;28;20037;-70
2023/08/08 06:10:32;;;;;;;1.25;0.45;;;;;;;22.17;45.07;101438.34;5025450;28;20087;-73
2023/08/08 06:12:57;;;;;;;1.08;0.80;;;;;;;21.29;46.60;101438.91;5030822;28;20128;-73
2023/08/08 06:15:23;;;;;;;0.60;0.28;;;;;;;21.56;46.23;101441.28;5027713;28;20108;-73
2023/08/08 06:17:48;;;;;;;0.32;0.28;;;;;;;22.02;44.52;101439.06;5012094;28;20026;-73
2023/08/08 06:20:14;;;;;;;1.15;0.50;;;;;;;22.18;44.07;101448.03;5028024;28;20041;-73
2023/08/08 06:22:40;;;;;;;0.95;0.30;;;;;;;22.51;43.96;101454.44;5011244;28;20112;-72
2023/08/08 06:25:06;;;;;;;2.88;0.40;;;;;;;22.00;44.72;101444.47;5028031;28;20052;-72
2023/08/08 06:27:31;;;;;;;3.72;0.65;;;;;;;22.78;44.01;101449.53;5019467;28;20544;-73
2023/08/08 06:29:56;;;;;;;2.88;0.55;;;;;;;22.01;45.42;101445.34;5047603;28;20516;-71
2023/08/08 06:32:22;;;;;;;1.85;0.50;;;;;;;21.76;46.16;101442.97;5031663;28;20044;-71
2023/08/08 06:34:47;;;;;;;9.48;5.07;;;;;;;22.56;44.75;101439.09;5030074;28;20025;-71
2023/08/08 06:37:13;;;;;;;3.22;0.63;;;;;;;22.61;44.28;101442.38;5043828;28;20048;-71
2023/08/08 06:39:39;;;;;;;1.48;0.32;;;;;;;22.75;44.61;101444.34;5012054;28;20073;-71
2023/08/08 06:42:05;;;;;;;3.25;0.82;;;;;;;22.17;45.01;101450.78;5012050;28;20025;-71
2023/08/08 06:44:32;;;;;;;1.35;0.50;;;;;;;22.34;44.60;101439.34;5030089;28;20053;-71
2023/08/08 06:46:58;;;;;;;0.93;0.40;;;;;;;22.12;45.40;101439.47;5046096;28;20057;-71
2023/08/08 06:49:23;;;;;;;0.25;0.20;;;;;;;22.52;44.47;101449.03;5016131;28;20310;-73
2023/08/08 06:51:49;;;;;;;0.47;0.32;;;;;;;21.58;45.81;101448.22;5032590;28;20061;-71
2023/08/08 06:54:14;;;;;;;0.73;0.38;;;;;;;22.72;43.84;101439.16;5046927;28;20044;-71
2023/08/08 06:56:39;;;;;;;3.03;0.50;;;;;;;23.24;43.01;101442.72;5046709;28;20053;-72
2023/08/08 06:59:05;;;;;;;1.00;0.30;;;;;;;22.31;43.61;101442.09;5034429;28;20033;-72
2023/08/08 07:01:30;;;;;;;1.55;0.30;;;;;;;23.54;41.63;101438.38;5030600;28;20485;-73
2023/08/08 07:03:56;;;;;;;0.45;0.25;;;;;;;25.32;39.28;101446.75;5029415;28;20022;-72
2023/08/08 07:06:22;;;;;;;1.30;0.40;;;;;;;24.92;39.08;101433.16;5031094;28;20053;-72
2023/08/08 07:08:48;;;;;;;4.07;0.40;;;;;;;25.02;37.85;101441.50;5025889;28;20433;-73
2023/08/08 07:11:13;;;;;;;1.48;0.30;;;;;;;25.08;38.60;101449.13;5026343;28;20444;-72
2023/08/08 07:13:39;;;;;;;0.60;0.30;;;;;;;26.32;36.64;101435.94;5023386;28;20033;-72
2023/08/08 07:16:04;;;;;;;0.63;0.38;;;;;;;25.13;37.67;101446.16;5030217;28;20159;-72
2023/08/08 07:18:29;;;;;;;1.67;0.20;;;;;;;25.51;37.12;101441.13;5037414;28;20060;-72
2023/08/08 07:20:56;;;;;;;0.60;0.28;;;;;;;25.97;36.44;101444.47;5034325;28;20043;-72
2023/08/08 07:23:22;;;;;;;1.30;0.30;;;;;;;25.93;36.02;101445.63;5040578;28;20029;-72
2023/08/08 07:25:47;;;;;;;0.43;0.30;;;;;;;25.24;37.53;101444.56;5029291;28;20022;-72
2023/08/08 07:28:14;;;;;;;0.22;0.22;;;;;;;26.86;34.83;101438.53;5029394;28;20041;-71
2023/08/08 07:30:40;;;;;;;49.15;6.07;;;;;;;27.30;34.07;101427.41;5029463;28;20033;-72
2023/08/08 07:33:06;;;;;;;3.95;0.30;;;;;;;27.20;34.17;101438.84;5030306;28;20054;-72
2023/08/08 07:35:33;;;;;;;0.50;0.20;;;;;;;28.12;33.44;101441.19;5014821;28;20551;-72
2023/08/08 07:37:58;;;;;;;2.58;0.50;;;;;;;29.06;32.30;101430.47;5022203;28;20046;-72
2023/08/08 07:40:23;;;;;;;2.35;0.43;;;;;;;27.80;32.31;101439.03;5014979;28;20509;-72
2023/08/08 07:42:52;;;;;;;1.20;0.28;;;;;;;26.81;32.84;101427.25;5028705;28;20044;-72
2023/08/08 07:45:18;;;;;;;0.57;0.20;;;;;;;26.72;33.70;101423.41;5016850;28;20103;-72
2023/08/08 07:47:43;;;;;;;0.70;0.30;;;;;;;27.86;32.61;101433.22;5010231;28;20096;-71
2023/08/08 07:50:09;;;;;;;0.45;0.20;;;;;;;28.38;32.61;101435.66;5026013;28;20468;-72
2023/08/08 07:52:38;;;;;;;0.70;0.38;;;;;;;28.58;31.32;101420.72;5016453;28;20032;-72
2023/08/08 07:55:04;;;;;;;0.85;0.30;;;;;;;27.09;32.80;101425.31;5041050;28;20025;-72
2023/08/08 07:57:31;;;;;;;0.30;0.30;;;;;;;27.74;32.49;101424.25;5039342;28;20045;-72
2023/08/08 07:59:57;;;;;;;0.47;0.30;;;;;;;30.27;29.08;101418.88;5014148;28;20088;-72
2023/08/08 08:02:22;;;;;;;0.40;0.40;;;;;;;29.38;29.60;101418.97;5024880;28;20037;-73
2023/08/08 08:04:48;;;;;;;0.20;0.20;;;;;;;28.07;31.64;101424.56;5025834;28;20032;-72
2023/08/08 08:07:13;;;;;;;0.20;0.20;;;;;;;28.32;32.21;101431.63;5025844;28;20044;-72
2023/08/08 08:09:42;;;;;;;0.90;0.60;;;;;;;27.25;32.57;101427.75;5041534;28;20046;-73
2023/08/08 08:12:08;;;;;;;0.20;0.20;;;;;;;26.95;34.14;101430.78;5010716;28;20018;-72
2023/08/08 08:14:33;;;;;;;0.30;0.30;;;;;;;28.73;31.78;101426.75;5025449;28;20140;-72
2023/08/08 08:16:59;;;;;;;0.75;0.30;;;;;;;27.12;32.64;101430.47;5008755;28;20104;-72
2023/08/08 08:19:24;;;;;;;0.98;0.30;;;;;;;26.62;33.23;101432.13;5016957;28;20366;-72
2023/08/08 08:21:50;;;;;;;0.82;0.50;;;;;;;26.79;34.42;101431.88;5020806;28;20363;-73
2023/08/08 08:24:15;;;;;;;1.35;0.30;;;;;;;26.17;33.29;101433.34;5013036;28;20033;-72
2023/08/08 08:26:40;;;;;;;2.42;0.40;;;;;;;27.16;32.99;101431.09;5024840;28;20037;-72
2023/08/08 08:29:06;;;;;;;1.10;0.63;;;;;;;27.41;34.41;101430.25;5028012;28;20553;-72
2023/08/08 08:31:31;;;;;;;0.98;0.45;;;;;;;26.33;34.06;101427.78;5028585;28;20040;-72
2023/08/08 08:33:56;;;;;;;0.55;0.32;;;;;;;24.47;37.16;101443.84;5028576;28;20485;-72
2023/08/08 08:36:22;;;;;;;0.25;0.20;;;;;;;25.85;35.07;101436.25;5030091;28;20044;-72
2023/08/08 08:38:47;;;;;;;1.25;0.30;;;;;;;26.44;33.67;101440.47;5042780;28;20029;-72
2023/08/08 08:41:18;;;;;;;0.65;0.40;;;;;;;27.24;33.15;101429.59;5027849;28;20048;-72
2023/08/08 08:43:44;;;;;;;2.08;0.43;;;;;;;27.74;31.83;101429.59;5024473;28;20026;-72
2023/08/08 08:46:11;;;;;;;3.72;0.20;;;;;;;28.13;30.53;101432.16;5025692;28;20037;-72
2023/08/08 08:48:37;;;;;;;0.70;0.30;;;;;;;27.49;31.61;101422.50;5013248;28;20017;-71
2023/08/08 08:51:02;;;;;;;6.18;0.55;;;;;;;28.07;31.30;101435.31;5040674;28;20036;-72
2023/08/08 08:53:29;;;;;;;1.27;0.40;;;;;;;28.05;31.37;101434.56;5026378;28;20032;-72
2023/08/08 08:55:57;;;;;;;0.20;0.20;;;;;;;27.95;31.22;101449.63;5032730;28;20053;-72
2023/08/08 08:58:24;;;;;;;3.13;0.32;;;;;;;28.33;29.66;101451.28;5035081;28;20033;-73
2023/08/08 09:00:51;;;;;;;0.20;0.20;;;;;;;26.82;30.68;101439.69;5032357;28;20025;-72
2023/08/08 09:03:17;;;;;;;0.30;0.30;;;;;;;25.70;31.95;101439.94;5032820;28;20039;-72
2023/08/08 09:05:44;;;;;;;0.10;0.10;;;;;;;26.61;31.05;101446.50;5031414;28;20021;-72
2023/08/08 09:08:11;;;;;;;0.73;0.40;;;;;;;26.46;31.90;101443.91;5032847;28;20035;-72
2023/08/08 09:10:37;;;;;;;0.35;0.20;;;;;;;26.55;31.01;101440.59;5029886;28;20030;-72
2023/08/08 09:13:02;;;;;;;1.10;0.47;;;;;;;26.54;31.87;101435.34;5028901;28;20029;-72
2023/08/08 09:15:32;;;;;;;1.63;0.50;;;;;;;26.96;30.76;101445.94;5048553;28;20061;-72
2023/08/08 09:17:58;;;;;;;0.50;0.35;;;;;;;27.37;31.28;101455.59;5032634;28;20035;-72
2023/08/08 09:20:27;;;;;;;0.63;0.40;;;;;;;28.47;31.26;101447.53;5028619;28;20105;-72
2023/08/08 09:22:52;;;;;;;1.13;0.30;;;;;;;28.25;30.46;101451.88;5032124;28;20030;-75
2023/08/08 09:25:19;;;;;;;0.40;0.40;;;;;;;28.05;31.42;101461.44;5025439;28;20028;-73
2023/08/08 09:27:44;;;;;;;2.28;0.40;;;;;;;28.28;32.07;101451.63;5031777;28;20029;-72
2023/08/08 09:30:11;;;;;;;0.40;0.30;;;;;;;28.93;30.60;101447.56;5035184;28;20021;-73
2023/08/08 09:32:37;;;;;;;1.25;0.43;;;;;;;28.26;31.66;101443.69;5030304;28;20151;-72
2023/08/08 09:35:03;;;;;;;0.38;0.30;;;;;;;28.54;30.98;101446.13;5044603;28;20109;-73
2023/08/08 09:37:28;;;;;;;0.57;0.30;;;;;;;27.16;33.10;101456.13;5027702;28;20034;-72
2023/08/08 09:40:03;;;;;;;1.90;0.30;;;;;;;24.87;35.76;101452.16;5029628;28;20115;-73
2023/08/08 09:42:29;;;;;;;1.48;0.40;;;;;;;27.05;33.22;101461.34;5031563;28;20087;-72
2023/08/08 09:44:57;;;;;;;0.88;0.25;;;;;;;25.80;34.59;101459.81;5048127;28;20025;-73
2023/08/08 09:47:22;;;;;;;1.17;0.30;;;;;;;26.06;34.85;101454.59;5034049;28;20037;-73
2023/08/08 09:49:48;;;;;;;1.65;0.68;;;;;;;26.45;35.62;101452.91;5013010;28;20030;-72
2023/08/08 09:52:15;;;;;;;1.02;0.38;;;;;;;25.52;37.16;101452.69;5030930;28;20029;-71
2023/08/08 09:54:41;;;;;;;1.67;0.40;;;;;;;25.05;36.95;101457.34;5030685;28;20409;-72
2023/08/08 09:57:07;;;;;;;0.80;0.43;;;;;;;24.78;37.54;101460.75;5022663;28;20060;-72
2023/08/08 09:59:38;;;;;;;2.35;0.60;;;;;;;25.18;37.88;101461.00;5031539;28;20032;-72
2023/08/08 10:02:04;;;;;;;0.57;0.40;;;;;;;26.85;36.16;101450.22;5042636;28;20029;-71
2023/08/08 10:04:30;;;;;;;3.70;0.70;;;;;;;26.50;36.74;101456.16;5047193;28;20116;-72
2023/08/08 10:06:55;;;;;;;0.75;0.20;;;;;;;25.81;35.28;101464.19;5033496;28;20108;-72
2023/08/08 10:09:21;;;;;;;0.68;0.40;;;;;;;25.35;37.03;101461.78;5031525;28;20026;-72
2023/08/08 10:11:47;;;;;;;1.00;0.28;;;;;;;25.47;36.42;101447.66;5017709;28;20481;-72
2023/08/08 10:14:15;;;;;;;0.88;0.30;;;;;;;26.80;35.38;101457.69;5035553;28;20329;-72
2023/08/08 10:16:44;;;;;;;1.00;0.85;;;;;;;26.27;37.14;101454.13;5032327;28;20025;-71
2023/08/08 10:19:10;;;;;;;0.47;0.30;;;;;;;26.44;36.02;101456.53;5011936;28;20437;-72
2023/08/08 10:21:43;;;;;;;2.45;0.50;;;;;;;26.69;34.63;101463.75;5011656;28;20030;-71
2023/08/08 10:24:10;;;;;;;1.63;0.70;;;;;;;25.20;36.29;101469.78;5039769;28;20520;-72
2023/08/08 10:26:57;;;;;;;2.63;0.40;;;;;;;25.18;36.29;101460.13;5030984;28;20451;-71
2023/08/08 10:29:25;;;;;;;0.85;0.38;;;;;;;25.42;36.81;101456.88;5030510;28;20040;-71
2023/08/08 10:32:03;;;;;;;4.32;0.40;;;;;;;25.05;37.47;101460.88;5028840;28;20036;-71
2023/08/08 10:34:41;;;;;;;0.57;0.40;;;;;;;25.81;36.13;101458.84;5030332;28;20029;-72
2023/08/08 10:37:25;;;;;;;3.85;0.70;;;;;;;24.93;37.24;101466.97;5026520;28;20029;-72
2023/08/08 10:39:55;;;;;;;1.17;0.43;;;;;;;25.41;36.54;101445.34;5020305;28;20075;-71
2023/08/08 10:42:23;;;;;;;3.40;0.40;;;;;;;25.12;37.09;101466.72;5026989;28;20076;-71
2023/08/08 10:44:57;;;;;;;1.20;0.50;;;;;;;26.93;35.22;101449.69;5015398;28;20040;-72
2023/08/08 10:47:35;;;;;;;1.45;0.50;;;;;;;26.98;35.49;101454.72;5027357;28;20029;-71
2023/08/08 10:50:07;;;;;;;0.95;0.50;;;;;;;25.43;35.35;101454.16;5033573;28;20108;-71
2023/08/08 10:52:38;;;;;;;0.43;0.40;;;;;;;25.83;35.87;101451.59;5039395;28;20037;-72
2023/08/08 10:55:03;;;;;;;1.30;0.50;;;;;;;24.67;37.01;101471.22;5035678;28;20588;-71
2023/08/08 10:57:30;;;;;;;3.28;0.45;;;;;;;25.49;36.46;101459.09;5033265;28;20062;-72
2023/08/08 11:00:15;;;;;;;0.63;0.45;;;;;;;24.82;36.90;101470.28;5031441;28;20044;-72
2023/08/08 11:02:41;;;;;;;2.10;0.40;;;;;;;25.39;36.13;101466.00;5029871;28;20110;-72
2023/08/08 11:05:07;;;;;;;0.63;0.57;;;;;;;25.94;35.87;101458.03;5030014;28;20484;-72
2023/08/08 11:07:32;;;;;;;0.45;0.45;;;;;;;25.27;36.88;101459.56;5023104;28;20503;-72
2023/08/08 11:09:58;;;;;;;0.47;0.47;;;;;;;25.37;37.32;101458.03;5026971;28;20053;-72
2023/08/08 11:12:26;;;;;;;0.98;0.65;;;;;;;26.31;36.27;101448.47;5014615;28;20354;-72
2023/08/08 11:14:51;;;;;;;3.70;0.47;;;;;;;26.29;36.78;101452.22;5029981;28;20105;-72
2023/08/08 11:17:18;;;;;;;0.40;0.40;;;;;;;25.85;36.59;101455.00;5030107;28;20112;-72
2023/08/08 11:19:43;;;;;;;1.85;0.50;;;;;;;26.07;36.74;101454.50;5029753;28;20033;-72
2023/08/08 11:22:13;;;;;;;4.15;0.80;;;;;;;25.60;38.22;101454.91;5029712;28;20029;-72